Main page
METAR-TAF:

METAR-TAF

Airports :

Perpignan–Rivesaltes Airport

Perpignan, France

latitude: 42-44N, longitude: 002-52E, elevation: 43 m

Current weather observation

The report was made 20 minutes ago, at 12:00 UTC
Wind 11 kt from the Northwest, varying between West/Southwest and North
Temperature 36°C
Humidity 24%
Pressure 1016 hPa
Visibility 10 km or more
no clouds below 1500 m and no cumulonimbus

METAR: LFMP 141200Z AUTO 32011KT 250V360 CAVOK 36/12 Q1016 TEMPO 32015G25KT

Time: 14:20 (12:20 UTC)

Forecast

The report was made 4 hours and 20 minutes ago, at 08:00 UTC
Forecast valid from 14 at 09 UTC to 15 at 09 UTC
Wind 2 kt from variable directions
Visibility 10 km or more
no clouds below 1500 m and no cumulonimbus
Becoming
from 14 at 09 UTC to 14 at 11 UTC
Wind 10 kt from the Northwest
Temporary
from 14 at 11 UTC to 14 at 17 UTC
Wind 15 kt from the Northwest with gusts up to 25 kt

TAF: LFMP 140800Z 1409/1509 VRB02KT CAVOK BECMG 1409/1411 31010KT TEMPO 1411/1417 32015G25KT

Weather observations and forecasts of more than 4000 airports (METAR and TAF reports).

The available stations are represented by yellow and red dots on the map.

Hover mouse over dot to see the name of the station.

Then click to see weather observations and forecasts.

To change the map : click on the green buttons with a black cross to zoom in, on the green button with a dash to zoom out, or on the green arrows for adjacent maps.


METAR-TAF: